PWSweather.com
Personal Weather Stations
Station Observations
IONTARIO88
Lincoln, ON L0R

Lincoln, ON L0R

Lat: 43.1763563, Lon: -79.4719525

Elevation: 297

Station Type: Davis Vantage Pro 2 Plus

http://www.beamsvillewx.ca

Latest ConditionsUpdated 11:40:02 PM EST Friday, Nov 21, 2014
Currently Today's Max Today's Min Today's Average
Temperature 20.5°F-6.4°C 31.6°F-0.2°C 16.6°F-8.6°C 22.8°F-5.1°C
Dew Point 12.9°F-10.6°C 18.9°F-7.3°C 9.2°F-12.7°C 13.8°F-10.1°C
Winds Calm Calm 14.3 mph W23.0 kmh W - 5.0 mph 8.0 kmh
Wind Gusts -- 20.0 mph32.2 kmh - -
Humidity 72% 82% 54% 69%
Pressure 30.39 in1029.1 mb 30.47 in1031.8 mb 30.04 in1017.3 mb -
Hour Temp Dew Point Humidity Winds Wind Gusts Pressure Precip Precip Rate Daily Precip Total
11:40 PM 20.5°F-6.4°C 12.9°F-10.6°C 72% Calm Calm -- 30.39 in1029.1 mb 0.00 in0.0 mm 0.00 in/hr0.0 mm/hr 0.00 in0.0 mm
11:30 PM 20.2°F-6.6°C 12.3°F-10.9°C 71% Calm Calm -- 30.40 in1029.5 mb 0.00 in0.0 mm 0.00 in/hr0.0 mm/hr 0.00 in0.0 mm
11:20 PM 19.9°F-6.7°C 12.3°F-10.9°C 72% Calm Calm -- 30.40 in1029.5 mb 0.00 in0.0 mm 0.00 in/hr0.0 mm/hr 0.00 in0.0 mm
11:10 PM 19.5°F-6.9°C 12.3°F-10.9°C 73% Calm Calm -- 30.40 in1029.5 mb 0.00 in0.0 mm 0.00 in/hr0.0 mm/hr 0.00 in0.0 mm
11:00 PM 19.2°F-7.1°C 11.3°F-11.5°C 71% 0.7 mph WSW1.1 kmh WSW 2.0 mph3.2 kmh 30.40 in1029.5 mb 0.00 in0.0 mm 0.00 in/hr0.0 mm/hr 0.00 in0.0 mm
10:50 PM 19.0°F-7.2°C 11.2°F-11.6°C 71% Calm Calm 1.0 mph1.6 kmh 30.41 in1029.8 mb 0.00 in0.0 mm 0.00 in/hr0.0 mm/hr 0.00 in0.0 mm
10:40 PM 18.9°F-7.3°C 11.7°F-11.3°C 73% Calm Calm -- 30.42 in1030.1 mb 0.00 in0.0 mm 0.00 in/hr0.0 mm/hr 0.00 in0.0 mm
10:30 PM 18.6°F-7.4°C 11.1°F-11.6°C 72% Calm Calm -- 30.42 in1030.1 mb 0.00 in0.0 mm 0.00 in/hr0.0 mm/hr 0.00 in0.0 mm
10:20 PM 18.5°F-7.5°C 10.7°F-11.8°C 71% Calm Calm -- 30.42 in1030.1 mb 0.00 in0.0 mm 0.00 in/hr0.0 mm/hr 0.00 in0.0 mm
10:10 PM 18.7°F-7.4°C 10.9°F-11.7°C 71% Calm Calm -- 30.42 in1030.1 mb 0.00 in0.0 mm 0.00 in/hr0.0 mm/hr 0.00 in0.0 mm
10:00 PM 18.8°F-7.3°C 10.6°F-11.9°C 70% Calm Calm -- 30.42 in1030.1 mb 0.00 in0.0 mm 0.00 in/hr0.0 mm/hr 0.00 in0.0 mm
09:50 PM 18.7°F-7.4°C 10.2°F-12.1°C 69% Calm Calm -- 30.43 in1030.5 mb 0.00 in0.0 mm 0.00 in/hr0.0 mm/hr 0.00 in0.0 mm
09:40 PM 19.0°F-7.2°C 10.2°F-12.1°C 68% 1.3 mph WSW2.1 kmh WSW 2.0 mph3.2 kmh 30.43 in1030.5 mb 0.00 in0.0 mm 0.00 in/hr0.0 mm/hr 0.00 in0.0 mm
09:30 PM 19.2°F-7.1°C 10.0°F-12.2°C 67% 1.1 mph WSW1.8 kmh WSW 2.0 mph3.2 kmh 30.43 in1030.5 mb 0.00 in0.0 mm 0.00 in/hr0.0 mm/hr 0.00 in0.0 mm
09:20 PM 19.3°F-7.1°C 10.1°F-12.2°C 67% 1.0 mph WSW1.6 kmh WSW 2.0 mph3.2 kmh 30.43 in1030.5 mb 0.00 in0.0 mm 0.00 in/hr0.0 mm/hr 0.00 in0.0 mm
09:10 PM 19.2°F-7.1°C 9.7°F-12.4°C 66% Calm Calm 1.0 mph1.6 kmh 30.44 in1030.8 mb 0.00 in0.0 mm 0.00 in/hr0.0 mm/hr 0.00 in0.0 mm
09:00 PM 19.4°F-7.0°C 9.5°F-12.5°C 65% 0.3 mph WSW0.5 kmh WSW -- 30.44 in1030.8 mb 0.00 in0.0 mm 0.00 in/hr0.0 mm/hr 0.00 in0.0 mm
08:50 PM 19.4°F-7.0°C 9.2°F-12.7°C 64% 0.3 mph WSW0.5 kmh WSW -- 30.44 in1030.8 mb 0.00 in0.0 mm 0.00 in/hr0.0 mm/hr 0.00 in0.0 mm
08:40 PM 19.6°F-6.9°C 9.4°F-12.6°C 64% 0.4 mph WSW0.6 kmh WSW 1.0 mph1.6 kmh 30.44 in1030.8 mb 0.00 in0.0 mm 0.00 in/hr0.0 mm/hr 0.00 in0.0 mm
08:30 PM 19.6°F-6.9°C 9.4°F-12.6°C 64% 1.3 mph WSW2.1 kmh WSW 2.0 mph3.2 kmh 30.44 in1030.8 mb 0.00 in0.0 mm 0.00 in/hr0.0 mm/hr 0.00 in0.0 mm
08:20 PM 20.2°F-6.6°C 9.6°F-12.4°C 63% 0.4 mph WSW0.6 kmh WSW 2.0 mph3.2 kmh 30.45 in1031.2 mb 0.00 in0.0 mm 0.00 in/hr0.0 mm/hr 0.00 in0.0 mm
08:10 PM 20.6°F-6.3°C 10.3°F-12.1°C 64% Calm Calm -- 30.45 in1031.2 mb 0.00 in0.0 mm 0.00 in/hr0.0 mm/hr 0.00 in0.0 mm
08:00 PM 20.7°F-6.3°C 10.8°F-11.8°C 65% Calm Calm -- 30.45 in1031.2 mb 0.00 in0.0 mm 0.00 in/hr0.0 mm/hr 0.00 in0.0 mm
07:50 PM 21.1°F-6.1°C 11.1°F-11.6°C 65% Calm Calm -- 30.46 in1031.5 mb 0.00 in0.0 mm 0.00 in/hr0.0 mm/hr 0.00 in0.0 mm
07:40 PM 21.4°F-5.9°C 10.7°F-11.8°C 63% Calm Calm -- 30.46 in1031.5 mb 0.00 in0.0 mm 0.00 in/hr0.0 mm/hr 0.00 in0.0 mm
07:30 PM 21.6°F-5.8°C 10.6°F-11.9°C 62% Calm Calm -- 30.46 in1031.5 mb 0.00 in0.0 mm 0.00 in/hr0.0 mm/hr 0.00 in0.0 mm
07:20 PM 21.6°F-5.8°C 10.6°F-11.9°C 62% Calm Calm -- 30.47 in1031.8 mb 0.00 in0.0 mm 0.00 in/hr0.0 mm/hr 0.00 in0.0 mm
07:10 PM 21.7°F-5.7°C 11.8°F-11.2°C 65% 0.7 mph WSW1.1 kmh WSW 3.0 mph4.8 kmh 30.46 in1031.5 mb 0.00 in0.0 mm 0.00 in/hr0.0 mm/hr 0.00 in0.0 mm
07:00 PM 22.0°F-5.6°C 11.0°F-11.7°C 62% 1.0 mph WSW1.6 kmh WSW 2.0 mph3.2 kmh 30.46 in1031.5 mb 0.00 in0.0 mm 0.00 in/hr0.0 mm/hr 0.00 in0.0 mm
06:50 PM 22.3°F-5.4°C 11.2°F-11.6°C 62% 1.8 mph WSW2.9 kmh WSW 3.0 mph4.8 kmh 30.47 in1031.8 mb 0.00 in0.0 mm 0.00 in/hr0.0 mm/hr 0.00 in0.0 mm
06:40 PM 22.5°F-5.3°C 10.7°F-11.8°C 60% 3.0 mph WSW4.8 kmh WSW 4.0 mph6.4 kmh 30.47 in1031.8 mb 0.00 in0.0 mm 0.00 in/hr0.0 mm/hr 0.00 in0.0 mm
06:30 PM 22.7°F-5.2°C 10.9°F-11.7°C 60% 3.0 mph WSW4.8 kmh WSW 4.0 mph6.4 kmh 30.47 in1031.8 mb 0.00 in0.0 mm 0.00 in/hr0.0 mm/hr 0.00 in0.0 mm
06:20 PM 23.0°F-5.0°C 10.4°F-12.0°C 58% 3.7 mph WSW6.0 kmh WSW 4.0 mph6.4 kmh 30.47 in1031.8 mb 0.00 in0.0 mm 0.00 in/hr0.0 mm/hr 0.00 in0.0 mm
06:10 PM 23.3°F-4.8°C 10.7°F-11.8°C 58% 3.0 mph WSW4.8 kmh WSW 4.0 mph6.4 kmh 30.47 in1031.8 mb 0.00 in0.0 mm 0.00 in/hr0.0 mm/hr 0.00 in0.0 mm
06:00 PM 23.6°F-4.7°C 10.9°F-11.7°C 58% 4.1 mph W6.6 kmh W 8.0 mph12.9 kmh 30.47 in1031.8 mb 0.00 in0.0 mm 0.00 in/hr0.0 mm/hr 0.00 in0.0 mm
05:50 PM 23.9°F-4.5°C 11.6°F-11.3°C 59% 4.1 mph W6.6 kmh W 7.0 mph11.3 kmh 30.47 in1031.8 mb 0.00 in0.0 mm 0.00 in/hr0.0 mm/hr 0.00 in0.0 mm
05:40 PM 24.1°F-4.4°C 11.9°F-11.2°C 59% 4.7 mph WSW7.6 kmh WSW 7.0 mph11.3 kmh 30.47 in1031.8 mb 0.00 in0.0 mm 0.00 in/hr0.0 mm/hr 0.00 in0.0 mm
05:30 PM 24.5°F-4.2°C 11.8°F-11.2°C 58% 4.2 mph WSW6.8 kmh WSW 8.0 mph12.9 kmh 30.47 in1031.8 mb 0.00 in0.0 mm 0.00 in/hr0.0 mm/hr 0.00 in0.0 mm
05:20 PM 24.9°F-3.9°C 11.4°F-11.4°C 56% 5.4 mph WSW8.7 kmh WSW 6.0 mph9.7 kmh 30.46 in1031.5 mb 0.00 in0.0 mm 0.00 in/hr0.0 mm/hr 0.00 in0.0 mm
05:10 PM 25.2°F-3.8°C 11.3°F-11.5°C 55% 5.0 mph WSW8.0 kmh WSW 9.0 mph14.5 kmh 30.46 in1031.5 mb 0.00 in0.0 mm 0.00 in/hr0.0 mm/hr 0.00 in0.0 mm
05:00 PM 25.5°F-3.6°C 11.1°F-11.6°C 54% 4.3 mph WSW6.9 kmh WSW 8.0 mph12.9 kmh 30.46 in1031.5 mb 0.00 in0.0 mm 0.00 in/hr0.0 mm/hr 0.00 in0.0 mm
04:50 PM 25.9°F-3.4°C 11.9°F-11.2°C 55% 3.4 mph WSW5.5 kmh WSW 5.0 mph8.0 kmh 30.46 in1031.5 mb 0.00 in0.0 mm 0.00 in/hr0.0 mm/hr 0.00 in0.0 mm
04:40 PM 26.3°F-3.2°C 12.3°F-10.9°C 55% 4.9 mph SW7.9 kmh SW 9.0 mph14.5 kmh 30.45 in1031.2 mb 0.00 in0.0 mm 0.00 in/hr0.0 mm/hr 0.00 in0.0 mm
04:30 PM 26.9°F-2.8°C 13.3°F-10.4°C 56% 3.1 mph WSW5.0 kmh WSW 8.0 mph12.9 kmh 30.45 in1031.2 mb 0.00 in0.0 mm 0.00 in/hr0.0 mm/hr 0.00 in0.0 mm
04:20 PM 27.6°F-2.4°C 13.5°F-10.3°C 55% 8.8 mph WSW14.2 kmh WSW 15.0 mph24.1 kmh 30.45 in1031.2 mb 0.00 in0.0 mm 0.00 in/hr0.0 mm/hr 0.00 in0.0 mm
04:10 PM 27.8°F-2.3°C 13.7°F-10.2°C 55% 5.8 mph WSW9.3 kmh WSW 9.0 mph14.5 kmh 30.44 in1030.8 mb 0.00 in0.0 mm 0.00 in/hr0.0 mm/hr 0.00 in0.0 mm
04:00 PM 28.8°F-1.8°C 16.2°F-8.8°C 59% 7.3 mph WSW11.7 kmh WSW 15.0 mph24.1 kmh 30.44 in1030.8 mb 0.00 in0.0 mm 0.00 in/hr0.0 mm/hr 0.00 in0.0 mm
03:50 PM 29.2°F-1.6°C 17.8°F-7.9°C 62% 5.5 mph W8.9 kmh W 10.0 mph16.1 kmh 30.44 in1030.8 mb 0.00 in0.0 mm 0.00 in/hr0.0 mm/hr 0.00 in0.0 mm
03:40 PM 28.8°F-1.8°C 17.7°F-7.9°C 63% 4.5 mph SW7.2 kmh SW 8.0 mph12.9 kmh 30.44 in1030.8 mb 0.00 in0.0 mm 0.00 in/hr0.0 mm/hr 0.00 in0.0 mm
03:30 PM 29.1°F-1.6°C 17.7°F-7.9°C 62% 5.0 mph W8.0 kmh W 9.0 mph14.5 kmh 30.44 in1030.8 mb 0.00 in0.0 mm 0.00 in/hr0.0 mm/hr 0.00 in0.0 mm
03:20 PM 28.9°F-1.7°C 17.5°F-8.1°C 62% 5.9 mph SW9.5 kmh SW 11.0 mph17.7 kmh 30.44 in1030.8 mb 0.00 in0.0 mm 0.00 in/hr0.0 mm/hr 0.00 in0.0 mm
03:10 PM 29.9°F-1.2°C 18.0°F-7.8°C 61% 6.3 mph WSW10.1 kmh WSW 9.0 mph14.5 kmh 30.43 in1030.5 mb 0.00 in0.0 mm 0.00 in/hr0.0 mm/hr 0.00 in0.0 mm
03:00 PM 30.5°F-0.8°C 18.3°F-7.6°C 60% 5.8 mph WSW9.3 kmh WSW 11.0 mph17.7 kmh 30.43 in1030.5 mb 0.00 in0.0 mm 0.00 in/hr0.0 mm/hr 0.00 in0.0 mm
02:50 PM 30.8°F-0.7°C 18.1°F-7.7°C 59% 7.2 mph W11.6 kmh W 9.0 mph14.5 kmh 30.43 in1030.5 mb 0.00 in0.0 mm 0.00 in/hr0.0 mm/hr 0.00 in0.0 mm
02:40 PM 31.4°F-0.3°C 18.7°F-7.4°C 59% 6.8 mph W10.9 kmh W 9.0 mph14.5 kmh 30.42 in1030.1 mb 0.00 in0.0 mm 0.00 in/hr0.0 mm/hr 0.00 in0.0 mm
02:30 PM 31.6°F-0.2°C 18.9°F-7.3°C 59% 7.1 mph WNW11.4 kmh WNW 9.0 mph14.5 kmh 30.42 in1030.1 mb 0.00 in0.0 mm 0.00 in/hr0.0 mm/hr 0.00 in0.0 mm
02:20 PM 31.0°F-0.6°C 17.9°F-7.8°C 58% 4.5 mph W7.2 kmh W 8.0 mph12.9 kmh 30.42 in1030.1 mb 0.00 in0.0 mm 0.00 in/hr0.0 mm/hr 0.00 in0.0 mm
02:10 PM 31.1°F-0.5°C 17.6°F-8.0°C 57% 7.1 mph W11.4 kmh W 10.0 mph16.1 kmh 30.42 in1030.1 mb 0.00 in0.0 mm 0.00 in/hr0.0 mm/hr 0.00 in0.0 mm
02:00 PM 31.0°F-0.6°C 17.9°F-7.8°C 58% 6.9 mph WNW11.1 kmh WNW 9.0 mph14.5 kmh 30.42 in1030.1 mb 0.00 in0.0 mm 0.00 in/hr0.0 mm/hr 0.00 in0.0 mm
01:50 PM 30.9°F-0.6°C 17.8°F-7.9°C 58% 6.2 mph WNW10.0 kmh WNW 10.0 mph16.1 kmh 30.42 in1030.1 mb 0.00 in0.0 mm 0.00 in/hr0.0 mm/hr 0.00 in0.0 mm
01:40 PM 31.0°F-0.6°C 17.9°F-7.8°C 58% 6.3 mph WSW10.1 kmh WSW 9.0 mph14.5 kmh 30.41 in1029.8 mb 0.00 in0.0 mm 0.00 in/hr0.0 mm/hr 0.00 in0.0 mm
01:30 PM 31.1°F-0.5°C 18.0°F-7.8°C 58% 5.2 mph WNW8.4 kmh WNW 9.0 mph14.5 kmh 30.41 in1029.8 mb 0.00 in0.0 mm 0.00 in/hr0.0 mm/hr 0.00 in0.0 mm
01:20 PM 31.4°F-0.3°C 17.5°F-8.1°C 56% 4.7 mph W7.6 kmh W 7.0 mph11.3 kmh 30.41 in1029.8 mb 0.00 in0.0 mm 0.00 in/hr0.0 mm/hr 0.00 in0.0 mm
01:10 PM 31.2°F-0.4°C 17.7°F-7.9°C 57% 5.2 mph WNW8.4 kmh WNW 8.0 mph12.9 kmh 30.41 in1029.8 mb 0.00 in0.0 mm 0.00 in/hr0.0 mm/hr 0.00 in0.0 mm
01:00 PM 31.0°F-0.6°C 17.5°F-8.1°C 57% 6.3 mph W10.1 kmh W 9.0 mph14.5 kmh 30.41 in1029.8 mb 0.00 in0.0 mm 0.00 in/hr0.0 mm/hr 0.00 in0.0 mm
12:50 PM 30.8°F-0.7°C 17.3°F-8.2°C 57% 7.5 mph WSW12.1 kmh WSW 10.0 mph16.1 kmh 30.41 in1029.8 mb 0.00 in0.0 mm 0.00 in/hr0.0 mm/hr 0.00 in0.0 mm
12:40 PM 30.4°F-0.9°C 16.6°F-8.6°C 56% 6.8 mph W10.9 kmh W 9.0 mph14.5 kmh 30.41 in1029.8 mb 0.00 in0.0 mm 0.00 in/hr0.0 mm/hr 0.00 in0.0 mm
12:30 PM 30.1°F-1.1°C 16.7°F-8.5°C 57% 7.2 mph W11.6 kmh W 8.0 mph12.9 kmh 30.41 in1029.8 mb 0.00 in0.0 mm 0.00 in/hr0.0 mm/hr 0.00 in0.0 mm
12:20 PM 30.2°F-1.0°C 16.4°F-8.7°C 56% 6.9 mph WSW11.1 kmh WSW 11.0 mph17.7 kmh 30.41 in1029.8 mb 0.00 in0.0 mm 0.00 in/hr0.0 mm/hr 0.00 in0.0 mm
12:10 PM 30.1°F-1.1°C 17.5°F-8.1°C 59% 5.3 mph W8.5 kmh W 9.0 mph14.5 kmh 30.41 in1029.8 mb 0.00 in0.0 mm 0.00 in/hr0.0 mm/hr 0.00 in0.0 mm
12:00 PM 29.6°F-1.3°C 17.0°F-8.3°C 59% 6.9 mph WNW11.1 kmh WNW 11.0 mph17.7 kmh 30.41 in1029.8 mb 0.00 in0.0 mm 0.00 in/hr0.0 mm/hr 0.00 in0.0 mm
11:50 AM 29.2°F-1.6°C 17.8°F-7.9°C 62% 5.4 mph W8.7 kmh W 8.0 mph12.9 kmh 30.41 in1029.8 mb 0.00 in0.0 mm 0.00 in/hr0.0 mm/hr 0.00 in0.0 mm
11:40 AM 28.7°F-1.8°C 17.3°F-8.2°C 62% 7.3 mph W11.7 kmh W 9.0 mph14.5 kmh 30.41 in1029.8 mb 0.00 in0.0 mm 0.00 in/hr0.0 mm/hr 0.00 in0.0 mm
11:30 AM 28.5°F-1.9°C 17.1°F-8.3°C 62% 7.3 mph WNW11.7 kmh WNW 9.0 mph14.5 kmh 30.41 in1029.8 mb 0.00 in0.0 mm 0.00 in/hr0.0 mm/hr 0.00 in0.0 mm
11:20 AM 28.1°F-2.2°C 16.7°F-8.5°C 62% 7.2 mph WNW11.6 kmh WNW 9.0 mph14.5 kmh 30.41 in1029.8 mb 0.00 in0.0 mm 0.00 in/hr0.0 mm/hr 0.00 in0.0 mm
11:10 AM 28.1°F-2.2°C 17.1°F-8.3°C 63% 6.8 mph WSW10.9 kmh WSW 11.0 mph17.7 kmh 30.41 in1029.8 mb 0.00 in0.0 mm 0.00 in/hr0.0 mm/hr 0.00 in0.0 mm
11:00 AM 27.7°F-2.4°C 17.1°F-8.3°C 64% 4.9 mph WSW7.9 kmh WSW 6.0 mph9.7 kmh 30.41 in1029.8 mb 0.00 in0.0 mm 0.00 in/hr0.0 mm/hr 0.00 in0.0 mm
10:50 AM 27.3°F-2.6°C 17.1°F-8.3°C 65% 3.6 mph WNW5.8 kmh WNW 6.0 mph9.7 kmh 30.41 in1029.8 mb 0.00 in0.0 mm 0.00 in/hr0.0 mm/hr 0.00 in0.0 mm
10:40 AM 26.7°F-2.9°C 17.2°F-8.2°C 67% 4.4 mph W7.1 kmh W 6.0 mph9.7 kmh 30.41 in1029.8 mb 0.00 in0.0 mm 0.00 in/hr0.0 mm/hr 0.00 in0.0 mm
10:30 AM 26.0°F-3.3°C 16.2°F-8.8°C 66% 4.0 mph WSW6.4 kmh WSW 6.0 mph9.7 kmh 30.41 in1029.8 mb 0.00 in0.0 mm 0.00 in/hr0.0 mm/hr 0.00 in0.0 mm
10:20 AM 25.5°F-3.6°C 16.1°F-8.8°C 67% 2.5 mph WSW4.0 kmh WSW 6.0 mph9.7 kmh 30.40 in1029.5 mb 0.00 in0.0 mm 0.00 in/hr0.0 mm/hr 0.00 in0.0 mm
10:10 AM 25.2°F-3.8°C 16.5°F-8.6°C 69% 4.8 mph WSW7.7 kmh WSW 8.0 mph12.9 kmh 30.39 in1029.1 mb 0.00 in0.0 mm 0.00 in/hr0.0 mm/hr 0.00 in0.0 mm
10:00 AM 24.7°F-4.1°C 16.3°F-8.7°C 70% 3.4 mph WSW5.5 kmh WSW 6.0 mph9.7 kmh 30.39 in1029.1 mb 0.00 in0.0 mm 0.00 in/hr0.0 mm/hr 0.00 in0.0 mm
09:50 AM 24.4°F-4.2°C 16.0°F-8.9°C 70% 3.1 mph W5.0 kmh W 5.0 mph8.0 kmh 30.39 in1029.1 mb 0.00 in0.0 mm 0.00 in/hr0.0 mm/hr 0.00 in0.0 mm
09:40 AM 23.6°F-4.7°C 15.8°F-9.0°C 72% 2.5 mph WSW4.0 kmh WSW 4.0 mph6.4 kmh 30.38 in1028.8 mb 0.00 in0.0 mm 0.00 in/hr0.0 mm/hr 0.00 in0.0 mm
09:30 AM 23.3°F-4.8°C 15.6°F-9.1°C 72% 3.7 mph W6.0 kmh W 4.0 mph6.4 kmh 30.38 in1028.8 mb 0.00 in0.0 mm 0.00 in/hr0.0 mm/hr 0.00 in0.0 mm
09:20 AM 22.8°F-5.1°C 15.4°F-9.2°C 73% 4.1 mph WSW6.6 kmh WSW 5.0 mph8.0 kmh 30.38 in1028.8 mb 0.00 in0.0 mm 0.00 in/hr0.0 mm/hr 0.00 in0.0 mm
09:10 AM 22.1°F-5.5°C 15.1°F-9.4°C 74% 3.8 mph WSW6.1 kmh WSW 7.0 mph11.3 kmh 30.36 in1028.1 mb 0.00 in0.0 mm 0.00 in/hr0.0 mm/hr 0.00 in0.0 mm
09:00 AM 21.5°F-5.8°C 14.8°F-9.6°C 75% 4.3 mph WSW6.9 kmh WSW 5.0 mph8.0 kmh 30.36 in1028.1 mb 0.00 in0.0 mm 0.00 in/hr0.0 mm/hr 0.00 in0.0 mm
08:50 AM 20.9°F-6.2°C 14.5°F-9.7°C 76% 4.2 mph WSW6.8 kmh WSW 7.0 mph11.3 kmh 30.36 in1028.1 mb 0.00 in0.0 mm 0.00 in/hr0.0 mm/hr 0.00 in0.0 mm
08:40 AM 20.1°F-6.6°C 14.3°F-9.8°C 78% 5.9 mph W9.5 kmh W 8.0 mph12.9 kmh 30.35 in1027.8 mb 0.00 in0.0 mm 0.00 in/hr0.0 mm/hr 0.00 in0.0 mm
08:30 AM 19.3°F-7.1°C 13.9°F-10.1°C 79% 4.6 mph WSW7.4 kmh WSW 7.0 mph11.3 kmh 30.34 in1027.4 mb 0.00 in0.0 mm 0.00 in/hr0.0 mm/hr 0.00 in0.0 mm
08:20 AM 18.6°F-7.4°C 13.5°F-10.3°C 80% 3.0 mph SW4.8 kmh SW 9.0 mph14.5 kmh 30.33 in1027.1 mb 0.00 in0.0 mm 0.00 in/hr0.0 mm/hr 0.00 in0.0 mm
08:10 AM 17.8°F-7.9°C 12.9°F-10.6°C 81% 3.8 mph WSW6.1 kmh WSW 6.0 mph9.7 kmh 30.33 in1027.1 mb 0.00 in0.0 mm 0.00 in/hr0.0 mm/hr 0.00 in0.0 mm
08:00 AM 17.2°F-8.2°C 12.6°F-10.8°C 82% 2.9 mph WSW4.7 kmh WSW 4.0 mph6.4 kmh 30.33 in1027.1 mb 0.00 in0.0 mm 0.00 in/hr0.0 mm/hr 0.00 in0.0 mm
07:50 AM 17.0°F-8.3°C 12.5°F-10.8°C 82% 4.8 mph W7.7 kmh W 7.0 mph11.3 kmh 30.32 in1026.8 mb 0.00 in0.0 mm 0.00 in/hr0.0 mm/hr 0.00 in0.0 mm
07:40 AM 16.7°F-8.5°C 12.2°F-11.0°C 82% 5.3 mph WSW8.5 kmh WSW 8.0 mph12.9 kmh 30.31 in1026.4 mb 0.00 in0.0 mm 0.00 in/hr0.0 mm/hr 0.00 in0.0 mm
07:30 AM 16.6°F-8.6°C 12.1°F-11.1°C 82% 4.9 mph WSW7.9 kmh WSW 8.0 mph12.9 kmh 30.31 in1026.4 mb 0.00 in0.0 mm 0.00 in/hr0.0 mm/hr 0.00 in0.0 mm
07:20 AM 16.6°F-8.6°C 11.8°F-11.2°C 81% 4.8 mph WSW7.7 kmh WSW 5.0 mph8.0 kmh 30.30 in1026.1 mb 0.00 in0.0 mm 0.00 in/hr0.0 mm/hr 0.00 in0.0 mm
07:10 AM 16.9°F-8.4°C 12.1°F-11.1°C 81% 4.0 mph SW6.4 kmh SW 5.0 mph8.0 kmh 30.28 in1025.4 mb 0.00 in0.0 mm 0.00 in/hr0.0 mm/hr 0.00 in0.0 mm
07:00 AM 17.3°F-8.2°C 12.5°F-10.8°C 81% 5.7 mph WSW9.2 kmh WSW 9.0 mph14.5 kmh 30.28 in1025.4 mb 0.00 in0.0 mm 0.00 in/hr0.0 mm/hr 0.00 in0.0 mm
06:50 AM 17.8°F-7.9°C 12.7°F-10.7°C 80% 5.4 mph WSW8.7 kmh WSW 8.0 mph12.9 kmh 30.27 in1025.1 mb 0.00 in0.0 mm 0.00 in/hr0.0 mm/hr 0.00 in0.0 mm
06:40 AM 18.5°F-7.5°C 13.1°F-10.5°C 79% 5.5 mph W8.9 kmh W 9.0 mph14.5 kmh 30.26 in1024.7 mb 0.00 in0.0 mm 0.00 in/hr0.0 mm/hr 0.00 in0.0 mm
06:30 AM 19.2°F-7.1°C 13.7°F-10.2°C 79% 4.6 mph WSW7.4 kmh WSW 10.0 mph16.1 kmh 30.26 in1024.7 mb 0.00 in0.0 mm 0.00 in/hr0.0 mm/hr 0.00 in0.0 mm
06:20 AM 19.8°F-6.8°C 14.4°F-9.8°C 79% 5.8 mph W9.3 kmh W 8.0 mph12.9 kmh 30.25 in1024.4 mb 0.00 in0.0 mm 0.00 in/hr0.0 mm/hr 0.00 in0.0 mm
06:10 AM 20.3°F-6.5°C 14.8°F-9.6°C 79% 5.5 mph WSW8.9 kmh WSW 8.0 mph12.9 kmh 30.24 in1024.0 mb 0.00 in0.0 mm 0.00 in/hr0.0 mm/hr 0.00 in0.0 mm
06:00 AM 20.3°F-6.5°C 14.8°F-9.6°C 79% 4.7 mph WSW7.6 kmh WSW 9.0 mph14.5 kmh 30.24 in1024.0 mb 0.00 in0.0 mm 0.00 in/hr0.0 mm/hr 0.00 in0.0 mm
05:50 AM 20.2°F-6.6°C 15.0°F-9.4°C 80% 7.0 mph WSW11.3 kmh WSW 9.0 mph14.5 kmh 30.23 in1023.7 mb 0.00 in0.0 mm 0.00 in/hr0.0 mm/hr 0.00 in0.0 mm
05:40 AM 20.0°F-6.7°C 14.5°F-9.7°C 79% 7.4 mph W11.9 kmh W 10.0 mph16.1 kmh 30.21 in1023.0 mb 0.00 in0.0 mm 0.00 in/hr0.0 mm/hr 0.00 in0.0 mm
05:30 AM 20.3°F-6.5°C 14.8°F-9.6°C 79% 6.6 mph WSW10.6 kmh WSW 9.0 mph14.5 kmh 30.21 in1023.0 mb 0.00 in0.0 mm 0.00 in/hr0.0 mm/hr 0.00 in0.0 mm
05:20 AM 20.5°F-6.4°C 14.7°F-9.6°C 78% 6.8 mph WNW10.9 kmh WNW 11.0 mph17.7 kmh 30.20 in1022.7 mb 0.00 in0.0 mm 0.00 in/hr0.0 mm/hr 0.00 in0.0 mm
05:10 AM 20.5°F-6.4°C 15.0°F-9.4°C 79% 6.0 mph WSW9.7 kmh WSW 9.0 mph14.5 kmh 30.19 in1022.4 mb 0.00 in0.0 mm 0.00 in/hr0.0 mm/hr 0.00 in0.0 mm
05:00 AM 20.1°F-6.6°C 14.6°F-9.7°C 79% 6.8 mph W10.9 kmh W 11.0 mph17.7 kmh 30.19 in1022.4 mb 0.00 in0.0 mm 0.00 in/hr0.0 mm/hr 0.00 in0.0 mm
04:50 AM 19.8°F-6.8°C 14.4°F-9.8°C 79% 6.0 mph WSW9.7 kmh WSW 10.0 mph16.1 kmh 30.19 in1022.4 mb 0.00 in0.0 mm 0.00 in/hr0.0 mm/hr 0.00 in0.0 mm
04:40 AM 19.6°F-6.9°C 13.9°F-10.1°C 78% 6.9 mph W11.1 kmh W 11.0 mph17.7 kmh 30.17 in1021.7 mb 0.00 in0.0 mm 0.00 in/hr0.0 mm/hr 0.00 in0.0 mm
04:30 AM 19.5°F-6.9°C 13.8°F-10.1°C 78% 7.3 mph W11.7 kmh W 11.0 mph17.7 kmh 30.17 in1021.7 mb 0.00 in0.0 mm 0.00 in/hr0.0 mm/hr 0.00 in0.0 mm
04:20 AM 19.3°F-7.1°C 13.3°F-10.4°C 77% 6.7 mph WNW10.8 kmh WNW 10.0 mph16.1 kmh 30.16 in1021.3 mb 0.00 in0.0 mm 0.00 in/hr0.0 mm/hr 0.00 in0.0 mm
04:10 AM 19.3°F-7.1°C 13.3°F-10.4°C 77% 7.4 mph W11.9 kmh W 13.0 mph20.9 kmh 30.14 in1020.7 mb 0.00 in0.0 mm 0.00 in/hr0.0 mm/hr 0.00 in0.0 mm
04:00 AM 19.3°F-7.1°C 13.0°F-10.6°C 76% 8.5 mph W13.7 kmh W 12.0 mph19.3 kmh 30.14 in1020.7 mb 0.00 in0.0 mm 0.00 in/hr0.0 mm/hr 0.00 in0.0 mm
03:50 AM 19.6°F-6.9°C 13.3°F-10.4°C 76% 9.1 mph WSW14.6 kmh WSW 14.0 mph22.5 kmh 30.14 in1020.7 mb 0.00 in0.0 mm 0.00 in/hr0.0 mm/hr 0.00 in0.0 mm
03:40 AM 19.7°F-6.8°C 13.4°F-10.3°C 76% 6.4 mph WSW10.3 kmh WSW 13.0 mph20.9 kmh 30.13 in1020.3 mb 0.00 in0.0 mm 0.00 in/hr0.0 mm/hr 0.00 in0.0 mm
03:30 AM 19.8°F-6.8°C 13.4°F-10.3°C 76% 7.6 mph W12.2 kmh W 12.0 mph19.3 kmh 30.13 in1020.3 mb 0.00 in0.0 mm 0.00 in/hr0.0 mm/hr 0.00 in0.0 mm
03:20 AM 20.4°F-6.4°C 13.4°F-10.3°C 74% 13.7 mph WSW22.0 kmh WSW 18.0 mph29.0 kmh 30.12 in1020.0 mb 0.00 in0.0 mm 0.00 in/hr0.0 mm/hr 0.00 in0.0 mm
03:10 AM 20.9°F-6.2°C 14.2°F-9.9°C 75% 12.7 mph W20.4 kmh W 19.0 mph30.6 kmh 30.11 in1019.6 mb 0.00 in0.0 mm 0.00 in/hr0.0 mm/hr 0.00 in0.0 mm
03:00 AM 21.1°F-6.1°C 14.1°F-9.9°C 74% 13.2 mph W21.2 kmh W 20.0 mph32.2 kmh 30.11 in1019.6 mb 0.00 in0.0 mm 0.00 in/hr0.0 mm/hr 0.00 in0.0 mm
02:50 AM 21.2°F-6.0°C 14.5°F-9.7°C 75% 13.7 mph W22.0 kmh W 20.0 mph32.2 kmh 30.10 in1019.3 mb 0.00 in0.0 mm 0.00 in/hr0.0 mm/hr 0.00 in0.0 mm
02:40 AM 21.2°F-6.0°C 14.2°F-9.9°C 74% 14.3 mph W23.0 kmh W 16.0 mph25.7 kmh 30.09 in1019.0 mb 0.00 in0.0 mm 0.00 in/hr0.0 mm/hr 0.00 in0.0 mm
02:30 AM 20.8°F-6.2°C 14.2°F-9.9°C 75% 10.9 mph WSW17.5 kmh WSW 16.0 mph25.7 kmh 30.09 in1019.0 mb 0.00 in0.0 mm 0.00 in/hr0.0 mm/hr 0.00 in0.0 mm
02:20 AM 20.4°F-6.4°C 13.7°F-10.2°C 75% 10.7 mph W17.2 kmh W 12.0 mph19.3 kmh 30.08 in1018.6 mb 0.00 in0.0 mm 0.00 in/hr0.0 mm/hr 0.00 in0.0 mm
02:10 AM 20.0°F-6.7°C 13.4°F-10.3°C 75% 8.4 mph WSW13.5 kmh WSW 16.0 mph25.7 kmh 30.08 in1018.6 mb 0.00 in0.0 mm 0.00 in/hr0.0 mm/hr 0.00 in0.0 mm
02:00 AM 19.8°F-6.8°C 13.2°F-10.4°C 75% 13.2 mph SW21.2 kmh SW 20.0 mph32.2 kmh 30.08 in1018.6 mb 0.00 in0.0 mm 0.00 in/hr0.0 mm/hr 0.00 in0.0 mm
01:50 AM 19.4°F-7.0°C 13.1°F-10.5°C 76% 9.6 mph SW15.4 kmh SW 14.0 mph22.5 kmh 30.07 in1018.3 mb 0.00 in0.0 mm 0.00 in/hr0.0 mm/hr 0.00 in0.0 mm
01:40 AM 19.3°F-7.1°C 13.0°F-10.6°C 76% 6.8 mph WSW10.9 kmh WSW 12.0 mph19.3 kmh 30.07 in1018.3 mb 0.00 in0.0 mm 0.00 in/hr0.0 mm/hr 0.00 in0.0 mm
01:30 AM 19.1°F-7.2°C 12.8°F-10.7°C 76% 7.5 mph WSW12.1 kmh WSW 15.0 mph24.1 kmh 30.07 in1018.3 mb 0.00 in0.0 mm 0.00 in/hr0.0 mm/hr 0.00 in0.0 mm
01:20 AM 18.9°F-7.3°C 12.9°F-10.6°C 77% 7.1 mph WSW11.4 kmh WSW 13.0 mph20.9 kmh 30.06 in1017.9 mb 0.00 in0.0 mm 0.00 in/hr0.0 mm/hr 0.00 in0.0 mm
01:10 AM 18.7°F-7.4°C 12.7°F-10.7°C 77% 8.4 mph WSW13.5 kmh WSW 15.0 mph24.1 kmh 30.06 in1017.9 mb 0.00 in0.0 mm 0.00 in/hr0.0 mm/hr 0.00 in0.0 mm
01:00 AM 19.0°F-7.2°C 13.0°F-10.6°C 77% 6.8 mph W10.9 kmh W 12.0 mph19.3 kmh 30.06 in1017.9 mb 0.00 in0.0 mm 0.00 in/hr0.0 mm/hr 0.00 in0.0 mm
12:50 AM 19.1°F-7.2°C 12.8°F-10.7°C 76% 8.0 mph WSW12.9 kmh WSW 12.0 mph19.3 kmh 30.05 in1017.6 mb 0.00 in0.0 mm 0.00 in/hr0.0 mm/hr 0.00 in0.0 mm
12:40 AM 19.2°F-7.1°C 13.2°F-10.4°C 77% 5.6 mph WNW9.0 kmh WNW 10.0 mph16.1 kmh 30.05 in1017.6 mb 0.00 in0.0 mm 0.00 in/hr0.0 mm/hr 0.00 in0.0 mm
12:30 AM 19.1°F-7.2°C 13.1°F-10.5°C 77% 6.4 mph WSW10.3 kmh WSW 11.0 mph17.7 kmh 30.05 in1017.6 mb 0.00 in0.0 mm 0.00 in/hr0.0 mm/hr 0.00 in0.0 mm
12:20 AM 19.0°F-7.2°C 13.0°F-10.6°C 77% 7.9 mph WSW12.7 kmh WSW 11.0 mph17.7 kmh 30.05 in1017.6 mb 0.00 in0.0 mm 0.00 in/hr0.0 mm/hr 0.00 in0.0 mm
12:10 AM 19.2°F-7.1°C 13.2°F-10.4°C 77% 8.8 mph W14.2 kmh W 19.0 mph30.6 kmh 30.04 in1017.3 mb 0.00 in0.0 mm 0.00 in/hr0.0 mm/hr 0.00 in0.0 mm
12:00 AM 19.2°F-7.1°C 13.2°F-10.4°C 77% 8.2 mph WSW13.2 kmh WSW 12.0 mph19.3 kmh 30.04 in1017.3 mb 0.00 in0.0 mm 0.00 in/hr0.0 mm/hr 0.00 in0.0 mm